Time;durP1;ratioP1;P1;durP2;ratioP2;P2;SDS_P1;SDS_P2;PMS_P1;PMS_P2;Temp;Humidity;BMP_temperature;BMP_pressure;BME280_temperature;BME280_humidity;BME280_pressure;Samples;Min_cycle;Max_cycle;Signal;HPM_P1;HPM_P2
2024/04/06 00:00:14;;;;;;;3.83;1.08;;;;;;;22.59;42.22;101148.00;4987115;28;20051;-72
2024/04/06 00:02:40;;;;;;;2.15;0.80;;;;;;;22.57;42.44;101146.56;4959756;28;20034;-72
2024/04/06 00:05:07;;;;;;;2.65;0.90;;;;;;;22.56;42.24;101150.22;4968744;28;20034;-72
2024/04/06 00:07:33;;;;;;;2.47;0.90;;;;;;;22.56;42.47;101156.38;4965077;28;20074;-72
2024/04/06 00:09:58;;;;;;;2.65;1.10;;;;;;;22.52;42.73;101154.28;4967639;28;20061;-73
2024/04/06 00:12:24;;;;;;;1.92;0.90;;;;;;;22.55;42.20;101152.06;4966877;28;20074;-73
2024/04/06 00:14:49;;;;;;;1.83;0.90;;;;;;;22.52;42.59;101149.78;4981601;28;20101;-72
2024/04/06 00:17:15;;;;;;;3.83;1.52;;;;;;;22.56;42.17;101152.88;4941703;28;20360;-73
2024/04/06 00:19:40;;;;;;;2.58;0.90;;;;;;;22.51;42.43;101157.94;4965832;28;20030;-72
2024/04/06 00:22:06;;;;;;;1.58;0.80;;;;;;;22.49;42.36;101159.97;4965703;28;20042;-75
2024/04/06 00:24:31;;;;;;;3.78;1.00;;;;;;;22.49;42.24;101162.63;4965533;28;20369;-72
2024/04/06 00:26:58;;;;;;;2.20;0.98;;;;;;;22.50;42.33;101158.97;4958373;28;20114;-72
2024/04/06 00:29:23;;;;;;;2.53;0.80;;;;;;;22.47;42.63;101148.72;4962550;28;20616;-73
2024/04/06 00:31:49;;;;;;;2.50;0.98;;;;;;;22.46;42.58;101157.72;4966369;28;20058;-72
2024/04/06 00:34:14;;;;;;;1.67;0.75;;;;;;;22.49;42.53;101150.19;4972882;28;20086;-72
2024/04/06 00:36:42;;;;;;;2.33;1.17;;;;;;;22.45;42.45;101151.56;4977046;28;20031;-72
2024/04/06 00:39:07;;;;;;;2.85;1.00;;;;;;;22.41;42.49;101150.28;4962846;28;20545;-72
2024/04/06 00:41:33;;;;;;;2.10;0.90;;;;;;;22.45;42.39;101150.75;4987113;28;20034;-71
2024/04/06 00:43:59;;;;;;;3.70;0.82;;;;;;;22.42;42.63;101148.44;4972081;28;20077;-72
2024/04/06 00:46:24;;;;;;;1.85;0.80;;;;;;;22.40;42.59;101148.66;4947896;28;20123;-71
2024/04/06 00:48:52;;;;;;;3.95;1.30;;;;;;;22.41;42.63;101160.09;4967306;28;20046;-72
2024/04/06 00:51:18;;;;;;;1.38;0.70;;;;;;;22.43;42.55;101152.75;4969628;28;20073;-73
2024/04/06 00:53:43;;;;;;;3.50;0.90;;;;;;;22.43;42.24;101160.72;4968251;28;20126;-72
2024/04/06 00:56:09;;;;;;;1.40;0.95;;;;;;;22.40;42.51;101153.94;4967916;28;20442;-72
2024/04/06 00:58:35;;;;;;;1.88;1.13;;;;;;;22.41;42.32;101149.47;4962704;28;20443;-72
2024/04/06 01:01:00;;;;;;;2.00;0.90;;;;;;;22.39;42.30;101154.97;4967923;28;20084;-72
2024/04/06 01:03:26;;;;;;;2.03;0.90;;;;;;;22.39;42.27;101154.97;4965051;28;20496;-72
2024/04/06 01:05:51;;;;;;;1.20;0.70;;;;;;;22.41;42.29;101162.72;4975768;28;20454;-72
2024/04/06 01:08:17;;;;;;;2.65;0.93;;;;;;;22.35;42.29;101166.16;4980991;28;20057;-73
2024/04/06 01:10:43;;;;;;;2.08;0.90;;;;;;;22.38;42.28;101168.41;4978353;28;20133;-72
2024/04/06 01:13:09;;;;;;;2.30;0.88;;;;;;;22.36;42.45;101170.44;4956754;28;20047;-73
2024/04/06 01:15:34;;;;;;;2.05;0.68;;;;;;;22.36;42.35;101167.78;4965941;28;23254;-72
2024/04/06 01:18:03;;;;;;;2.60;1.13;;;;;;;22.34;42.56;101172.47;4976022;28;20042;-72
2024/04/06 01:20:30;;;;;;;2.30;0.90;;;;;;;22.31;42.62;101171.84;4963041;28;20043;-72
2024/04/06 01:22:56;;;;;;;2.05;1.00;;;;;;;22.34;42.62;101172.47;4960491;28;20420;-72
2024/04/06 01:25:21;;;;;;;1.55;0.70;;;;;;;22.34;42.29;101167.97;4964288;28;20080;-72
2024/04/06 01:27:47;;;;;;;4.03;1.15;;;;;;;22.32;42.39;101183.28;4969720;28;20054;-72
2024/04/06 01:30:14;;;;;;;2.15;0.93;;;;;;;22.34;42.51;101185.72;4970042;28;20042;-72
2024/04/06 01:32:50;;;;;;;1.83;0.95;;;;;;;22.29;42.54;101184.47;4966408;28;20043;-72
2024/04/06 01:35:17;;;;;;;2.08;1.00;;;;;;;22.29;42.21;101181.00;4963407;28;20057;-72
2024/04/06 01:37:44;;;;;;;2.38;0.90;;;;;;;22.30;42.51;101185.28;4992259;28;20359;-73
2024/04/06 01:40:11;;;;;;;1.85;0.70;;;;;;;22.28;42.44;101189.97;4975737;28;20457;-71
2024/04/06 01:42:37;;;;;;;2.22;1.30;;;;;;;22.28;42.25;101185.47;4965964;28;20035;-72
2024/04/06 01:45:03;;;;;;;1.83;1.00;;;;;;;22.25;42.57;101174.41;4979562;28;20032;-73
2024/04/06 01:47:29;;;;;;;1.85;0.93;;;;;;;22.25;42.59;101179.72;5040785;28;20047;-73
2024/04/06 01:49:55;;;;;;;1.48;0.90;;;;;;;22.24;42.31;101175.41;4968384;28;20031;-73
2024/04/06 01:52:20;;;;;;;2.13;0.90;;;;;;;22.20;42.33;101160.88;4965722;28;20034;-72
2024/04/06 01:54:46;;;;;;;2.15;0.90;;;;;;;22.27;42.38;101185.66;4952640;28;20041;-72
2024/04/06 01:57:11;;;;;;;1.85;0.88;;;;;;;22.26;42.56;101181.34;4964285;28;20140;-72
2024/04/06 01:59:39;;;;;;;3.55;1.00;;;;;;;22.25;42.48;101188.47;4988614;28;20329;-72
2024/04/06 02:02:06;;;;;;;1.88;0.70;;;;;;;22.21;42.58;101179.25;4981539;28;20055;-72
2024/04/06 02:04:32;;;;;;;2.47;0.90;;;;;;;22.20;42.33;101180.28;4964639;28;20418;-71
2024/04/06 02:06:57;;;;;;;3.10;0.90;;;;;;;22.19;42.61;101175.97;4960464;28;20131;-72
2024/04/06 02:09:23;;;;;;;1.95;0.95;;;;;;;22.18;42.64;101177.00;4993090;28;20062;-72
2024/04/06 02:11:48;;;;;;;2.80;1.10;;;;;;;22.21;42.48;101189.06;4961831;28;20680;-72
2024/04/06 02:14:14;;;;;;;2.15;0.90;;;;;;;22.22;42.69;101188.88;4933662;28;20434;-72
2024/04/06 02:16:39;;;;;;;1.70;1.05;;;;;;;22.20;42.46;101188.22;4964606;28;20034;-72
2024/04/06 02:19:04;;;;;;;2.53;1.25;;;;;;;22.20;42.22;101188.22;4961186;28;20058;-72
2024/04/06 02:21:30;;;;;;;2.22;0.88;;;;;;;22.19;42.41;101185.78;4958440;28;20042;-73
2024/04/06 02:23:55;;;;;;;2.20;1.00;;;;;;;22.18;42.30;101182.28;4962108;28;20026;-72
2024/04/06 02:26:21;;;;;;;1.55;0.82;;;;;;;22.15;42.68;101168.59;4955383;28;20478;-72
2024/04/06 02:28:46;;;;;;;2.33;0.90;;;;;;;22.12;42.68;101176.94;4962598;28;20046;-73
2024/04/06 02:31:12;;;;;;;3.17;1.30;;;;;;;22.15;42.49;101164.09;4958905;28;20065;-72
2024/04/06 02:33:38;;;;;;;3.35;1.02;;;;;;;22.14;42.40;101173.06;4952850;28;20066;-71
2024/04/06 02:36:04;;;;;;;1.60;1.00;;;;;;;22.14;42.59;101182.88;4959255;28;20043;-72
2024/04/06 02:38:30;;;;;;;2.50;0.98;;;;;;;22.15;42.30;101172.06;4951896;28;20158;-72
2024/04/06 02:40:55;;;;;;;2.58;1.02;;;;;;;22.14;42.44;101173.06;4968049;28;20042;-72
2024/04/06 02:43:21;;;;;;;1.63;0.80;;;;;;;22.14;42.68;101173.06;4957934;28;20063;-72
2024/04/06 02:45:47;;;;;;;3.20;1.30;;;;;;;22.13;42.43;101175.91;4955653;28;20039;-72
2024/04/06 02:48:12;;;;;;;1.85;0.90;;;;;;;22.09;42.44;101159.56;4961774;28;20058;-73
2024/04/06 02:50:38;;;;;;;2.92;1.10;;;;;;;22.12;42.46;101158.34;4959305;28;20081;-72
2024/04/06 02:53:04;;;;;;;2.60;1.35;;;;;;;22.11;42.58;101154.06;4960662;28;20057;-72
2024/04/06 02:55:30;;;;;;;2.75;1.00;;;;;;;22.10;42.30;101158.56;4967704;28;20460;-72
2024/04/06 02:57:55;;;;;;;1.80;0.90;;;;;;;22.08;42.78;101159.72;4957740;28;20043;-72
2024/04/06 03:00:21;;;;;;;2.35;1.15;;;;;;;22.09;42.61;101148.13;4964974;28;20132;-72
2024/04/06 03:02:46;;;;;;;2.05;0.90;;;;;;;22.09;42.75;101146.28;4969964;28;20463;-72
2024/04/06 03:05:12;;;;;;;2.72;1.10;;;;;;;22.05;42.42;101149.50;4967932;28;20039;-72
2024/04/06 03:07:37;;;;;;;3.17;0.82;;;;;;;22.07;42.78;101155.41;4962320;28;20458;-72
2024/04/06 03:10:04;;;;;;;3.70;1.20;;;;;;;22.11;42.69;101152.22;4963701;28;20046;-72
2024/04/06 03:12:30;;;;;;;2.90;1.00;;;;;;;22.07;42.31;101139.50;4939881;28;20047;-72
2024/04/06 03:14:55;;;;;;;2.50;1.10;;;;;;;22.03;42.66;101125.78;4974472;28;20035;-72
2024/04/06 03:17:21;;;;;;;2.05;1.02;;;;;;;22.06;42.56;101128.06;4961602;28;20039;-71
2024/04/06 03:19:46;;;;;;;2.35;1.00;;;;;;;22.05;42.53;101120.31;4963837;28;20049;-72
2024/04/06 03:22:12;;;;;;;1.33;0.85;;;;;;;22.06;42.40;101119.31;4958974;28;20039;-72
2024/04/06 03:24:38;;;;;;;2.53;1.20;;;;;;;22.03;42.30;101113.34;4955102;28;20043;-72
2024/04/06 03:27:04;;;;;;;1.75;0.85;;;;;;;21.98;42.53;101105.13;4957786;28;20042;-73
2024/04/06 03:29:30;;;;;;;2.65;0.98;;;;;;;21.98;42.80;101107.78;4941766;28;20057;-73
2024/04/06 03:31:55;;;;;;;1.95;0.90;;;;;;;22.03;42.71;101118.63;4954967;28;20067;-72
2024/04/06 03:34:21;;;;;;;2.63;1.00;;;;;;;22.00;42.45;101110.25;4961760;28;20729;-72
2024/04/06 03:36:46;;;;;;;2.63;1.17;;;;;;;21.99;42.44;101120.03;4973782;28;20046;-73
2024/04/06 03:39:12;;;;;;;1.52;0.93;;;;;;;22.00;42.38;101126.97;5041785;28;20054;-72
2024/04/06 03:41:38;;;;;;;2.88;1.00;;;;;;;22.06;42.25;101135.22;4944398;28;20035;-72
2024/04/06 03:44:03;;;;;;;2.08;1.08;;;;;;;22.01;42.53;101143.72;4957506;28;20042;-72
2024/04/06 03:46:29;;;;;;;2.58;1.10;;;;;;;21.99;42.52;101133.28;4959578;28;20039;-71
2024/04/06 03:48:55;;;;;;;2.60;1.20;;;;;;;21.97;42.36;101134.50;4957165;28;20054;-72
2024/04/06 03:51:21;;;;;;;2.15;1.10;;;;;;;21.96;42.68;101133.66;4955079;28;20035;-72
2024/04/06 03:53:47;;;;;;;2.40;1.00;;;;;;;22.05;42.48;101138.88;4954796;28;20070;-73
2024/04/06 03:56:12;;;;;;;2.05;1.00;;;;;;;22.00;42.55;101144.72;4958443;28;20446;-72
2024/04/06 03:58:38;;;;;;;2.65;1.20;;;;;;;21.99;42.69;101138.59;4954272;28;20051;-72
2024/04/06 04:01:04;;;;;;;1.95;0.93;;;;;;;21.97;42.46;101140.63;4952816;28;20446;-73
2024/04/06 04:03:29;;;;;;;2.95;1.00;;;;;;;21.96;42.62;101138.97;4963532;28;20077;-72
2024/04/06 04:05:55;;;;;;;2.17;1.02;;;;;;;21.93;42.78;101141.19;4950685;28;20035;-72
2024/04/06 04:08:21;;;;;;;2.53;1.20;;;;;;;21.95;42.69;101139.16;4956402;28;20053;-71
2024/04/06 04:10:47;;;;;;;2.38;1.20;;;;;;;21.97;42.51;101140.63;4956342;28;20217;-73
2024/04/06 04:13:13;;;;;;;1.92;1.05;;;;;;;21.94;42.60;101134.88;4968314;28;20457;-72
2024/04/06 04:15:41;;;;;;;1.38;0.95;;;;;;;21.95;42.47;101142.63;4953160;28;20031;-70
2024/04/06 04:18:08;;;;;;;2.88;1.20;;;;;;;21.94;42.48;101146.28;4946111;28;20049;-70
2024/04/06 04:20:34;;;;;;;2.72;1.10;;;;;;;21.91;42.51;101149.31;4931348;28;20053;-70
2024/04/06 04:23:01;;;;;;;4.35;1.13;;;;;;;21.95;42.99;101160.38;4961235;28;20140;-73
2024/04/06 04:25:30;;;;;;;2.17;1.05;;;;;;;22.19;42.39;101157.41;4912144;28;20042;-72
2024/04/06 04:27:57;;;;;;;2.22;1.15;;;;;;;22.30;42.39;101156.09;4966551;28;20050;-73
2024/04/06 04:30:22;;;;;;;1.90;1.05;;;;;;;22.34;42.57;101160.03;4967637;28;20747;-70
2024/04/06 04:32:53;;;;;;;2.28;1.00;;;;;;;22.43;42.19;101158.06;4951376;28;20058;-71
2024/04/06 04:35:20;;;;;;;2.05;0.82;;;;;;;22.48;42.10;101156.50;4959400;28;20494;-72
2024/04/06 04:37:46;;;;;;;1.65;0.93;;;;;;;22.53;42.37;101166.53;4944389;28;20046;-69
2024/04/06 04:40:11;;;;;;;2.00;1.60;;;;;;;22.63;42.00;101160.94;4917206;28;20037;-69
2024/04/06 04:42:38;;;;;;;1.83;0.90;;;;;;;22.68;42.15;101159.34;4963295;28;20031;-71
2024/04/06 04:45:14;;;;;;;2.05;1.17;;;;;;;22.70;42.01;101149.34;4931472;28;20062;-69
2024/04/06 04:47:39;;;;;;;2.70;1.02;;;;;;;22.72;42.31;101139.34;5028540;28;20341;-71
2024/04/06 04:50:06;;;;;;;1.73;1.02;;;;;;;22.79;42.04;101131.44;4922886;28;20070;-69
2024/04/06 04:52:31;;;;;;;3.28;1.00;;;;;;;;;;4962685;28;20043;-71
2024/04/06 04:54:57;;;;;;;1.23;0.85;;;;;;;22.83;42.18;101133.56;4934814;28;20624;-73
2024/04/06 04:57:22;;;;;;;1.58;0.88;;;;;;;22.86;42.21;101137.69;4944516;28;20042;-71
2024/04/06 04:59:48;;;;;;;1.90;1.00;;;;;;;22.89;41.84;101135.44;4947014;28;20140;-69
2024/04/06 05:02:17;;;;;;;1.83;1.15;;;;;;;22.96;42.13;101138.13;4958928;28;20039;-74
2024/04/06 05:04:42;;;;;;;1.85;1.23;;;;;;;22.99;42.26;101147.59;4975259;28;20073;-68
2024/04/06 05:07:09;;;;;;;2.25;0.90;;;;;;;22.95;42.16;101143.66;4947991;28;20752;-70
2024/04/06 05:09:34;;;;;;;2.05;0.82;;;;;;;22.97;42.24;101134.47;4968294;28;20039;-71
2024/04/06 05:12:00;;;;;;;1.85;0.90;;;;;;;22.92;42.48;101126.28;4917491;28;20773;-69
2024/04/06 05:14:28;;;;;;;2.40;1.20;;;;;;;22.88;42.43;101120.53;4959937;28;20070;-71
2024/04/06 05:16:53;;;;;;;2.38;1.20;;;;;;;22.87;42.48;101115.41;4907397;28;20066;-72
2024/04/06 05:19:18;;;;;;;3.42;1.27;;;;;;;22.98;42.52;101125.53;4950816;28;20045;-70
2024/04/06 05:21:44;;;;;;;2.42;1.05;;;;;;;23.07;42.25;101132.31;4913089;28;20034;-70
2024/04/06 05:24:09;;;;;;;2.40;1.00;;;;;;;23.14;42.13;101129.69;4954588;28;20047;-71
2024/04/06 05:26:35;;;;;;;1.65;1.02;;;;;;;23.17;42.04;101131.97;4914043;28;20044;-71
2024/04/06 05:29:00;;;;;;;2.60;1.02;;;;;;;23.18;42.21;101136.28;4951876;28;20058;-70
2024/04/06 05:31:26;;;;;;;2.00;1.17;;;;;;;23.17;42.37;101134.63;4909693;28;20072;-68
2024/04/06 05:33:51;;;;;;;1.70;1.00;;;;;;;23.17;42.19;101134.63;4960493;28;20381;-69
2024/04/06 05:36:17;;;;;;;1.85;0.98;;;;;;;23.22;42.36;101129.56;4911967;28;20043;-69
2024/04/06 05:38:43;;;;;;;1.20;0.98;;;;;;;23.23;41.97;101125.06;4937936;28;20050;-68
2024/04/06 05:41:09;;;;;;;1.65;1.08;;;;;;;23.26;42.08;101129.97;4898333;28;20034;-69
2024/04/06 05:43:35;;;;;;;1.73;1.20;;;;;;;23.20;42.22;101126.28;4956282;28;20043;-69
2024/04/06 05:46:04;;;;;;;2.35;1.08;;;;;;;23.30;41.96;101124.06;4910300;28;20402;-71
2024/04/06 05:48:29;;;;;;;2.70;1.70;;;;;;;23.39;42.20;101124.75;4953274;28;20046;-71
2024/04/06 05:50:57;;;;;;;3.40;1.65;;;;;;;23.35;42.02;101132.31;4926244;28;20050;-69
2024/04/06 05:53:22;;;;;;;2.53;1.50;;;;;;;23.42;42.08;101135.81;4951496;28;20105;-68
2024/04/06 05:55:48;;;;;;;2.45;1.45;;;;;;;23.26;41.96;101143.25;5000702;28;20583;-67
2024/04/06 05:58:14;;;;;;;2.42;1.33;;;;;;;23.33;41.85;101136.13;4955342;28;20130;-72
2024/04/06 06:00:39;;;;;;;2.38;1.40;;;;;;;23.32;41.66;101121.22;4914033;28;20066;-70
2024/04/06 06:03:05;;;;;;;2.25;1.20;;;;;;;23.23;42.01;101114.44;4939688;28;20046;-71
2024/04/06 06:05:31;;;;;;;1.75;1.17;;;;;;;23.23;42.09;101120.56;4953929;28;20066;-71
2024/04/06 06:07:56;;;;;;;2.50;1.40;;;;;;;23.26;42.13;101114.84;4910681;28;20041;-69
2024/04/06 06:10:22;;;;;;;1.55;1.20;;;;;;;23.39;41.48;101117.59;4954500;28;20049;-73
2024/04/06 06:12:47;;;;;;;3.90;1.42;;;;;;;23.10;42.41;101115.97;4916445;28;20051;-72
2024/04/06 06:15:13;;;;;;;3.92;1.98;;;;;;;22.92;42.83;101121.78;4953804;28;20112;-69
2024/04/06 06:17:40;;;;;;;4.25;1.90;;;;;;;22.87;42.79;101108.28;4914164;28;20113;-71
2024/04/06 06:20:07;;;;;;;3.03;1.52;;;;;;;22.75;42.82;101104.47;4952917;28;20043;-73
2024/04/06 06:22:32;;;;;;;3.22;1.42;;;;;;;22.67;43.10;101111.75;4920725;28;20478;-72
2024/04/06 06:24:58;;;;;;;3.67;1.67;;;;;;;22.65;43.43;101116.44;4948177;28;20043;-72
2024/04/06 06:27:24;;;;;;;2.85;1.23;;;;;;;22.63;43.52;101115.81;4918559;28;20407;-72
2024/04/06 06:29:49;;;;;;;3.63;1.60;;;;;;;22.61;43.28;101115.97;4976044;28;20044;-72
2024/04/06 06:32:15;;;;;;;2.15;1.60;;;;;;;22.61;43.67;101105.34;4915263;28;20059;-71
2024/04/06 06:34:41;;;;;;;3.42;1.75;;;;;;;22.54;43.75;101110.63;4954934;28;20047;-71
2024/04/06 06:37:06;;;;;;;2.45;1.35;;;;;;;22.67;43.47;101101.13;4903670;28;20096;-71
2024/04/06 06:39:32;;;;;;;5.43;1.77;;;;;;;22.64;43.18;101097.03;4953514;28;20104;-70
2024/04/06 06:41:57;;;;;;;2.95;1.40;;;;;;;22.65;43.14;101106.63;4922711;28;20115;-71
2024/04/06 06:44:23;;;;;;;3.03;1.27;;;;;;;22.71;43.14;101107.69;4944005;28;20039;-72
2024/04/06 06:46:48;;;;;;;2.35;1.27;;;;;;;22.84;42.90;101113.97;4914030;28;20032;-73
2024/04/06 06:49:14;;;;;;;2.30;1.40;;;;;;;23.10;42.56;101121.28;4949994;28;20057;-72
2024/04/06 06:51:39;;;;;;;2.58;1.50;;;;;;;23.17;42.48;101124.00;4916608;28;20039;-73
2024/04/06 06:54:05;;;;;;;1.70;1.08;;;;;;;23.17;42.44;101138.13;4929851;28;20697;-72
2024/04/06 06:56:31;;;;;;;2.05;1.13;;;;;;;23.26;42.53;101128.16;4927814;28;20457;-72
2024/04/06 06:58:57;;;;;;;2.30;1.40;;;;;;;23.34;42.31;101116.53;4952675;28;20797;-73
2024/04/06 07:01:23;;;;;;;1.92;1.13;;;;;;;23.33;42.36;101118.38;4915835;28;20639;-72
2024/04/06 07:03:48;;;;;;;2.85;1.10;;;;;;;23.30;42.30;101105.47;4953194;28;20051;-72
2024/04/06 07:06:14;;;;;;;1.98;1.10;;;;;;;23.26;42.57;101114.84;4921015;28;20275;-73
2024/04/06 07:08:40;;;;;;;6.57;1.20;;;;;;;23.26;42.57;101117.50;4949510;28;20157;-73
2024/04/06 07:11:06;;;;;;;5.03;1.23;;;;;;;23.24;42.73;101134.66;4936122;28;20051;-73
2024/04/06 07:13:32;;;;;;;5.18;1.27;;;;;;;23.21;42.44;101120.75;4947156;28;20034;-73
2024/04/06 07:16:05;;;;;;;2.25;1.00;;;;;;;23.20;42.53;101127.09;4917872;28;20054;-73
2024/04/06 07:18:31;;;;;;;4.50;1.63;;;;;;;23.20;42.68;101137.72;4954492;28;20043;-74
2024/04/06 07:20:57;;;;;;;3.50;1.30;;;;;;;23.21;42.55;101141.19;4911968;28;20944;-72
2024/04/06 07:23:23;;;;;;;3.50;1.10;;;;;;;23.22;42.35;101142.84;4956420;28;20034;-71
2024/04/06 07:25:49;;;;;;;4.07;1.40;;;;;;;23.24;42.22;101140.81;4915475;28;21364;-71
2024/04/06 07:28:16;;;;;;;3.15;1.20;;;;;;;23.23;42.41;101123.22;4951461;28;20042;-72
2024/04/06 07:30:42;;;;;;;4.53;1.20;;;;;;;23.18;42.38;101115.03;4936749;28;20900;-72
2024/04/06 07:33:08;;;;;;;1.65;0.90;;;;;;;23.23;42.44;101120.56;4952139;28;20035;-72
2024/04/06 07:35:33;;;;;;;2.20;1.15;;;;;;;23.20;42.80;101108.50;4926347;28;20046;-71
2024/04/06 07:37:59;;;;;;;5.35;1.20;;;;;;;23.21;42.61;101122.59;4950962;28;20043;-72
2024/04/06 07:40:24;;;;;;;3.08;1.15;;;;;;;23.19;42.74;101130.78;4928143;28;20046;-72
2024/04/06 07:42:52;;;;;;;4.32;1.20;;;;;;;23.16;42.80;101125.00;4949414;28;20034;-73
2024/04/06 07:45:17;;;;;;;1.88;1.10;;;;;;;23.08;42.92;101120.66;4932865;28;20038;-73
2024/04/06 07:47:43;;;;;;;3.13;0.93;;;;;;;22.99;43.15;101134.31;4924639;28;21060;-70
2024/04/06 07:50:08;;;;;;;2.13;1.20;;;;;;;23.00;43.30;101141.25;4952482;28;20053;-70
2024/04/06 07:52:34;;;;;;;1.88;1.10;;;;;;;23.00;43.02;101134.09;4917221;28;20793;-71
2024/04/06 07:55:00;;;;;;;2.72;1.38;;;;;;;23.02;42.87;101132.06;4949435;28;20073;-71
2024/04/06 07:57:26;;;;;;;1.58;1.05;;;;;;;23.03;42.90;101124.94;4922074;28;20050;-71
2024/04/06 07:59:52;;;;;;;2.38;0.90;;;;;;;22.97;43.26;101115.06;4954635;28;20124;-71
2024/04/06 08:02:17;;;;;;;2.90;1.10;;;;;;;23.01;43.14;101116.34;4903227;28;20042;-70
2024/04/06 08:04:44;;;;;;;2.88;1.20;;;;;;;22.97;43.19;101115.88;4953598;28;20125;-71
2024/04/06 08:07:10;;;;;;;2.25;0.82;;;;;;;22.95;43.30;101117.09;4913585;28;20042;-70
2024/04/06 08:09:36;;;;;;;2.63;0.98;;;;;;;22.93;43.29;101122.59;4957580;28;20105;-71
2024/04/06 08:12:02;;;;;;;2.85;0.95;;;;;;;22.84;43.43;101113.97;4920166;28;20043;-71
2024/04/06 08:14:27;;;;;;;2.45;0.82;;;;;;;22.91;43.51;101121.97;4956050;28;20042;-71
2024/04/06 08:16:53;;;;;;;3.40;0.98;;;;;;;22.84;43.57;101113.97;4911878;28;20088;-73
2024/04/06 08:19:18;;;;;;;1.45;0.93;;;;;;;22.90;43.60;101125.66;4931745;28;20047;-72
2024/04/06 08:21:44;;;;;;;3.35;1.35;;;;;;;23.08;43.31;101119.84;4940313;28;20043;-73
2024/04/06 08:24:10;;;;;;;1.88;1.10;;;;;;;23.18;43.41;101110.53;4916823;28;21091;-68
2024/04/06 08:26:36;;;;;;;6.95;1.30;;;;;;;23.25;43.14;101110.56;4951261;28;20050;-71
2024/04/06 08:29:02;;;;;;;3.78;1.30;;;;;;;23.26;43.22;101096.25;4919755;28;20058;-72
2024/04/06 08:31:28;;;;;;;2.88;1.10;;;;;;;23.29;43.34;101103.84;4954014;28;20135;-70
2024/04/06 08:33:54;;;;;;;3.60;0.93;;;;;;;23.36;42.87;101099.41;4935895;28;20042;-70
2024/04/06 08:36:19;;;;;;;2.63;0.93;;;;;;;23.36;42.99;101091.41;4940866;28;20042;-70
2024/04/06 08:38:45;;;;;;;1.70;0.90;;;;;;;23.41;42.83;101078.34;4949116;28;20695;-71
2024/04/06 08:41:10;;;;;;;3.78;1.27;;;;;;;23.45;42.95;101070.81;4922518;28;20041;-74
2024/04/06 08:43:43;;;;;;;5.55;2.13;;;;;;;23.43;42.92;101067.53;5039004;28;20140;-76
2024/04/06 08:46:08;;;;;;;4.05;3.10;;;;;;;23.48;42.75;101065.91;4915290;28;20782;-73
2024/04/06 08:48:35;;;;;;;4.40;2.50;;;;;;;23.45;43.11;101068.16;4957193;28;20045;-73
2024/04/06 08:51:03;;;;;;;3.88;2.17;;;;;;;23.41;43.35;101069.56;4918833;28;20043;-75
2024/04/06 08:53:30;;;;;;;4.45;2.50;;;;;;;23.51;43.04;101065.50;4951164;28;20050;-71
2024/04/06 08:55:55;;;;;;;3.80;1.70;;;;;;;23.46;43.24;101064.47;4924001;28;20043;-76
2024/04/06 08:58:22;;;;;;;4.63;2.88;;;;;;;23.52;43.44;101074.31;5040868;28;20127;-77
2024/04/06 09:00:50;;;;;;;5.82;3.15;;;;;;;23.48;43.46;101081.03;4924143;28;20725;-70
2024/04/06 09:03:16;;;;;;;5.13;2.97;;;;;;;23.53;43.52;101062.69;5003951;28;20049;-73
2024/04/06 09:05:44;;;;;;;10.30;2.88;;;;;;;23.57;43.30;101058.63;4917999;28;20448;-70
2024/04/06 09:08:16;;;;;;;3.70;2.22;;;;;;;23.71;43.05;101056.84;4960329;28;20050;-72
2024/04/06 09:10:46;;;;;;;5.15;2.30;;;;;;;23.67;43.12;101052.91;4914924;28;20111;-69
2024/04/06 09:13:12;;;;;;;3.15;2.25;;;;;;;23.80;42.94;101052.97;4939578;28;20500;-69
2024/04/06 09:15:38;;;;;;;4.90;2.03;;;;;;;23.90;42.91;101042.78;4923870;28;20046;-68
2024/04/06 09:18:03;;;;;;;3.83;1.48;;;;;;;23.76;42.82;101036.59;4954888;28;20485;-71
2024/04/06 09:20:29;;;;;;;8.77;1.52;;;;;;;23.69;43.20;101034.91;4924295;28;20108;-71
2024/04/06 09:22:56;;;;;;;4.68;1.70;;;;;;;23.67;43.13;101042.28;4946037;28;20042;-71
2024/04/06 09:25:22;;;;;;;4.13;1.30;;;;;;;23.60;43.32;101036.94;4953165;28;20030;-72
2024/04/06 09:27:48;;;;;;;6.90;1.65;;;;;;;23.58;43.32;101032.88;4923310;28;20111;-72
2024/04/06 09:30:13;;;;;;;5.03;2.05;;;;;;;23.64;43.28;101030.22;4960670;28;20035;-71
2024/04/06 09:32:40;;;;;;;2.30;1.38;;;;;;;23.70;43.24;101021.47;4915876;28;20055;-70
2024/04/06 09:35:07;;;;;;;2.53;1.23;;;;;;;23.69;43.16;101011.00;4956376;28;20181;-73
2024/04/06 09:37:38;;;;;;;4.43;1.30;;;;;;;23.68;43.18;101007.50;4928472;28;20038;-73
2024/04/06 09:40:09;;;;;;;3.45;1.58;;;;;;;23.68;43.35;101006.69;4957274;28;20066;-71
2024/04/06 09:42:36;;;;;;;2.90;1.60;;;;;;;23.69;43.32;101003.03;4924158;28;20133;-70
2024/04/06 09:45:03;;;;;;;3.08;1.20;;;;;;;23.69;43.27;100990.53;4961233;28;20097;-74
2024/04/06 09:47:31;;;;;;;4.00;1.42;;;;;;;23.67;43.55;100984.63;4924307;28;20035;-71
2024/04/06 09:49:57;;;;;;;2.78;1.38;;;;;;;23.71;43.45;100972.56;4957626;28;20507;-70
2024/04/06 09:52:24;;;;;;;3.55;1.45;;;;;;;23.72;43.75;100970.75;4917790;28;20051;-69
2024/04/06 09:54:50;;;;;;;2.63;1.30;;;;;;;23.71;43.81;100971.75;4962345;28;20042;-72
2024/04/06 09:57:17;;;;;;;7.35;1.52;;;;;;;23.72;43.59;100965.41;4929775;28;20043;-72
2024/04/06 09:59:43;;;;;;;2.13;1.27;;;;;;;23.71;43.89;100955.81;4961301;28;20039;-73
2024/04/06 10:02:09;;;;;;;5.57;1.50;;;;;;;23.74;43.82;100952.75;4930421;28;20596;-74
2024/04/06 10:04:36;;;;;;;4.13;1.05;;;;;;;23.75;43.70;100947.22;4940519;28;20046;-71
2024/04/06 10:07:05;;;;;;;4.13;1.30;;;;;;;23.75;43.80;100944.56;4912741;28;20039;-74
2024/04/06 10:09:31;;;;;;;3.97;1.42;;;;;;;23.75;43.87;100944.56;4960702;28;20039;-69
2024/04/06 10:12:02;;;;;;;4.03;1.27;;;;;;;23.74;44.18;100939.44;4915666;28;20363;-72
2024/04/06 10:14:29;;;;;;;4.03;1.33;;;;;;;23.88;43.66;100927.81;4966781;28;20259;-73
2024/04/06 10:17:08;;;;;;;1.95;1.10;;;;;;;23.92;43.48;100913.06;4927681;28;20058;-69
2024/04/06 10:19:39;;;;;;;3.38;1.83;;;;;;;23.97;43.32;100910.59;4958490;28;20387;-70
2024/04/06 10:22:07;;;;;;;1.90;1.20;;;;;;;23.77;43.78;100901.81;4905370;28;20054;-72
2024/04/06 10:24:36;;;;;;;3.80;1.33;;;;;;;23.70;44.24;100893.03;4951338;28;20043;-70
2024/04/06 10:27:03;;;;;;;4.05;1.45;;;;;;;23.63;44.45;100881.53;4919408;28;20117;-73
2024/04/06 10:29:31;;;;;;;3.05;1.45;;;;;;;23.61;44.45;100883.59;4963905;28;20049;-73
2024/04/06 10:31:57;;;;;;;2.92;1.20;;;;;;;23.55;44.79;100889.69;4948375;28;20047;-73
2024/04/06 10:34:23;;;;;;;3.95;1.23;;;;;;;23.56;44.90;100876.19;4950874;28;20043;-73
2024/04/06 10:36:49;;;;;;;3.53;1.30;;;;;;;23.52;44.87;100881.13;4923758;28;20047;-72
2024/04/06 10:39:16;;;;;;;3.30;1.40;;;;;;;23.49;44.78;100875.34;4949269;28;20031;-73
2024/04/06 10:41:43;;;;;;;2.38;1.30;;;;;;;23.49;44.96;100873.50;4919343;28;20045;-74
2024/04/06 10:44:09;;;;;;;1.70;1.23;;;;;;;23.48;44.87;100871.06;4954334;28;20043;-74
2024/04/06 10:46:35;;;;;;;2.35;1.52;;;;;;;23.45;44.82;100863.50;4917203;28;21529;-73
2024/04/06 10:49:01;;;;;;;3.78;1.20;;;;;;;23.45;44.64;100872.28;4958261;28;20053;-73
2024/04/06 10:51:26;;;;;;;4.18;1.70;;;;;;;23.45;44.94;100866.97;4904453;28;20585;-73
2024/04/06 10:53:55;;;;;;;4.03;1.42;;;;;;;23.43;44.75;100860.22;4943913;28;20885;-73
2024/04/06 10:56:21;;;;;;;2.10;1.52;;;;;;;23.41;44.97;100862.28;4902422;28;20034;-74
2024/04/06 10:58:47;;;;;;;2.33;1.13;;;;;;;23.39;44.95;100851.03;4959916;28;20085;-72
2024/04/06 11:01:17;;;;;;;4.30;1.58;;;;;;;23.40;44.91;100845.53;4928838;28;20099;-73
2024/04/06 11:03:46;;;;;;;2.30;1.40;;;;;;;23.41;44.94;100846.34;4937002;28;20046;-72
2024/04/06 11:06:12;;;;;;;2.50;1.25;;;;;;;23.41;44.95;100844.50;4938229;28;20688;-72
2024/04/06 11:08:40;;;;;;;5.32;1.38;;;;;;;23.41;45.01;100839.19;4926201;28;20046;-72
2024/04/06 11:11:08;;;;;;;4.18;1.20;;;;;;;23.40;45.10;100828.75;5025253;28;20367;-72
2024/04/06 11:13:40;;;;;;;4.53;1.48;;;;;;;23.37;45.20;100837.13;4943804;28;20059;-72
2024/04/06 11:16:06;;;;;;;3.47;1.63;;;;;;;23.35;45.09;100836.53;4940372;28;20647;-72
2024/04/06 11:18:42;;;;;;;2.83;1.13;;;;;;;23.34;45.36;100838.38;4938334;28;20038;-72
2024/04/06 11:21:10;;;;;;;4.03;1.30;;;;;;;23.35;45.15;100831.22;4937858;28;20131;-72